Ascutney, Vermont
Current Conditions -  °F | °C
As of 2:54 PM on Thursday 23 Oct 2014 (Local Time) from KVSF Reporting Station
Overcast Overcast  
Wind Chill: 45°   Ceiling: 1700
Heat Index: 48°   Visibility: 10mi
Dew Point: 44°   Wind: 7mph
Humidity: 86%   Direction: NA
Pressure: 29.78"   Gusts: NA
Location:  43.41°N, 72.41°W
Report Text: KVSF 231854Z AUTO VRB06KT 10SM OVC017 09/07 A2978 RMK AO2 RAE16B35E45 SLP087 P0000 T00890067
Loading
Personal Weather Stations






























Interactive Weather Map
Tropical Storm Tracking
New forecast layout! Learn more

10-Day Weather Forecast

Advertisements
Track Severe Weather on mobile